sensor_id;sensor_type;location;lat;lon;timestamp;pressure;altitude;pressure_sealevel;temperature;humidity
73338;BME280;61575;49.908;35.556;2023-03-22T00:02:42;99155.94;;;2.31;84.93
73338;BME280;61575;49.908;35.556;2023-03-22T00:05:43;99150.91;;;2.28;84.42
73338;BME280;61575;49.908;35.556;2023-03-22T00:08:49;99162.72;;;2.24;84.22
73338;BME280;61575;49.908;35.556;2023-03-22T00:11:53;99153.34;;;2.20;84.83
73338;BME280;61575;49.908;35.556;2023-03-22T00:14:55;99148.66;;;2.12;84.99
73338;BME280;61575;49.908;35.556;2023-03-22T00:17:58;99144.72;;;2.07;85.67
73338;BME280;61575;49.908;35.556;2023-03-22T00:21:00;99141.22;;;2.06;86.03
73338;BME280;61575;49.908;35.556;2023-03-22T00:24:02;99140.38;;;2.06;85.72
73338;BME280;61575;49.908;35.556;2023-03-22T00:27:04;99137.72;;;2.06;85.80
73338;BME280;61575;49.908;35.556;2023-03-22T00:30:07;99138.44;;;2.08;85.78
73338;BME280;61575;49.908;35.556;2023-03-22T00:33:10;99148.31;;;2.06;85.34
73338;BME280;61575;49.908;35.556;2023-03-22T00:36:12;99141.59;;;2.02;85.32
73338;BME280;61575;49.908;35.556;2023-03-22T00:39:15;99141.59;;;2.02;85.08
73338;BME280;61575;49.908;35.556;2023-03-22T00:42:16;99146.75;;;2.03;85.46
73338;BME280;61575;49.908;35.556;2023-03-22T00:45:22;99147.00;;;2.00;84.84
73338;BME280;61575;49.908;35.556;2023-03-22T00:48:24;99149.06;;;1.97;85.37
73338;BME280;61575;49.908;35.556;2023-03-22T00:51:26;99142.94;;;1.96;85.82
73338;BME280;61575;49.908;35.556;2023-03-22T00:54:28;99141.84;;;1.99;85.84
73338;BME280;61575;49.908;35.556;2023-03-22T00:57:30;99142.56;;;2.01;85.68
73338;BME280;61575;49.908;35.556;2023-03-22T01:00:33;99145.22;;;2.01;85.89
73338;BME280;61575;49.908;35.556;2023-03-22T01:03:35;99134.75;;;1.99;85.84
73338;BME280;61575;49.908;35.556;2023-03-22T01:06:39;99141.72;;;2.00;86.00
73338;BME280;61575;49.908;35.556;2023-03-22T01:09:41;99151.22;;;2.03;85.93
73338;BME280;61575;49.908;35.556;2023-03-22T01:12:43;99150.50;;;2.01;86.05
73338;BME280;61575;49.908;35.556;2023-03-22T01:15:49;99159.28;;;2.01;86.53
73338;BME280;61575;49.908;35.556;2023-03-22T01:18:51;99151.22;;;2.03;86.11
73338;BME280;61575;49.908;35.556;2023-03-22T01:21:53;99152.06;;;2.03;85.85
73338;BME280;61575;49.908;35.556;2023-03-22T01:24:56;99165.19;;;2.05;86.19
73338;BME280;61575;49.908;35.556;2023-03-22T01:27:57;99165.19;;;2.05;86.04
73338;BME280;61575;49.908;35.556;2023-03-22T01:31:00;99164.34;;;2.04;85.75
73338;BME280;61575;49.908;35.556;2023-03-22T01:34:03;99164.47;;;2.03;85.78
73338;BME280;61575;49.908;35.556;2023-03-22T01:37:05;99171.69;;;2.01;85.73
73338;BME280;61575;49.908;35.556;2023-03-22T01:40:11;99166.63;;;1.98;85.64
73338;BME280;61575;49.908;35.556;2023-03-22T01:43:14;99164.13;;;1.96;85.24
73338;BME280;61575;49.908;35.556;2023-03-22T01:46:18;99175.09;;;1.92;85.53
73338;BME280;61575;49.908;35.556;2023-03-22T01:52:22;99165.34;;;1.92;86.27
73338;BME280;61575;49.908;35.556;2023-03-22T01:55:33;99162.56;;;1.94;86.72
73338;BME280;61575;49.908;35.556;2023-03-22T01:58:49;99168.69;;;1.94;86.25
73338;BME280;61575;49.908;35.556;2023-03-22T02:01:56;99169.53;;;1.95;85.92
73338;BME280;61575;49.908;35.556;2023-03-22T02:05:02;99176.53;;;1.96;85.91
73338;BME280;61575;49.908;35.556;2023-03-22T02:08:04;99173.88;;;1.96;86.06
73338;BME280;61575;49.908;35.556;2023-03-22T02:11:30;99179.41;;;1.93;86.61
73338;BME280;61575;49.908;35.556;2023-03-22T02:18:44;99180.84;;;1.97;86.38
73338;BME280;61575;49.908;35.556;2023-03-22T02:28:28;99178.53;;;2.03;86.53
73338;BME280;61575;49.908;35.556;2023-03-22T02:48:38;99203.19;;;2.15;86.33
73338;BME280;61575;49.908;35.556;2023-03-22T02:51:49;99198.75;;;2.15;86.83
73338;BME280;61575;49.908;35.556;2023-03-22T02:55:30;99202.94;;;2.18;86.92
73338;BME280;61575;49.908;35.556;2023-03-22T02:58:43;99213.41;;;2.20;87.25
73338;BME280;61575;49.908;35.556;2023-03-22T03:01:49;99214.97;;;2.22;86.85
73338;BME280;61575;49.908;35.556;2023-03-22T03:04:53;99215.81;;;2.23;86.44
73338;BME280;61575;49.908;35.556;2023-03-22T03:07:59;99216.66;;;2.23;86.56
73338;BME280;61575;49.908;35.556;2023-03-22T03:11:05;99214.97;;;2.22;86.94
73338;BME280;61575;49.908;35.556;2023-03-22T03:14:28;99220.28;;;2.22;87.64
73338;BME280;61575;49.908;35.556;2023-03-22T03:21:02;99228.94;;;2.24;87.19
73338;BME280;61575;49.908;35.556;2023-03-22T03:31:05;99231.84;;;2.21;88.02
73338;BME280;61575;49.908;35.556;2023-03-22T03:34:23;99237.97;;;2.22;87.85
73338;BME280;61575;49.908;35.556;2023-03-22T03:37:36;99235.22;;;2.23;87.72
73338;BME280;61575;49.908;35.556;2023-03-22T03:40:47;99241.47;;;2.22;87.73
73338;BME280;61575;49.908;35.556;2023-03-22T03:43:53;99243.41;;;2.20;87.58
73338;BME280;61575;49.908;35.556;2023-03-22T03:46:56;99240.63;;;2.22;87.94
73338;BME280;61575;49.908;35.556;2023-03-22T03:49:59;99233.41;;;2.24;88.44
73338;BME280;61575;49.908;35.556;2023-03-22T03:53:01;99234.25;;;2.24;88.36
73338;BME280;61575;49.908;35.556;2023-03-22T03:56:04;99236.78;;;2.26;88.34
73338;BME280;61575;49.908;35.556;2023-03-22T03:59:12;99239.03;;;2.30;88.60
73338;BME280;61575;49.908;35.556;2023-03-22T04:02:16;99243.38;;;2.31;88.07
73338;BME280;61575;49.908;35.556;2023-03-22T04:05:19;99242.41;;;2.32;88.14
73338;BME280;61575;49.908;35.556;2023-03-22T04:08:21;99244.09;;;2.33;87.91
73338;BME280;61575;49.908;35.556;2023-03-22T04:11:23;99257.94;;;2.37;88.67
73338;BME280;61575;49.908;35.556;2023-03-22T04:14:30;99259.63;;;2.38;88.49
73338;BME280;61575;49.908;35.556;2023-03-22T04:17:40;99260.22;;;2.41;88.42
73338;BME280;61575;49.908;35.556;2023-03-22T04:20:45;99265.13;;;2.46;88.95
73338;BME280;61575;49.908;35.556;2023-03-22T04:23:47;99273.69;;;2.50;89.08
73338;BME280;61575;49.908;35.556;2023-03-22T04:26:50;99276.81;;;2.55;88.57
73338;BME280;61575;49.908;35.556;2023-03-22T04:30:07;99276.44;;;2.59;88.18
73338;BME280;61575;49.908;35.556;2023-03-22T04:33:37;99281.22;;;2.65;88.17
73338;BME280;61575;49.908;35.556;2023-03-22T04:36:54;99277.09;;;2.72;88.47
73338;BME280;61575;49.908;35.556;2023-03-22T04:40:08;99289.47;;;2.83;88.61
73338;BME280;61575;49.908;35.556;2023-03-22T04:43:29;99295.72;;;2.93;88.71
73338;BME280;61575;49.908;35.556;2023-03-22T04:46:37;99298.31;;;3.04;88.56
73338;BME280;61575;49.908;35.556;2023-03-22T04:49:40;99299.69;;;3.20;88.90
73338;BME280;61575;49.908;35.556;2023-03-22T04:52:43;99303.44;;;3.38;88.93
73338;BME280;61575;49.908;35.556;2023-03-22T04:55:45;99303.88;;;3.64;88.73
73338;BME280;61575;49.908;35.556;2023-03-22T04:58:47;99307.66;;;3.92;89.04
73338;BME280;61575;49.908;35.556;2023-03-22T05:01:50;99313.47;;;4.16;88.81
73338;BME280;61575;49.908;35.556;2023-03-22T05:04:56;99321.09;;;4.40;88.28
73338;BME280;61575;49.908;35.556;2023-03-22T05:08:09;99308.84;;;4.58;87.95
73338;BME280;61575;49.908;35.556;2023-03-22T05:11:14;99315.44;;;4.73;87.85
73338;BME280;61575;49.908;35.556;2023-03-22T05:14:33;99314.94;;;4.89;87.84
73338;BME280;61575;49.908;35.556;2023-03-22T05:17:36;99312.00;;;5.02;87.61
73338;BME280;61575;49.908;35.556;2023-03-22T05:20:40;99310.31;;;5.20;87.26
73338;BME280;61575;49.908;35.556;2023-03-22T05:23:50;99318.84;;;5.43;87.17
73338;BME280;61575;49.908;35.556;2023-03-22T05:26:53;99321.06;;;5.57;87.24
73338;BME280;61575;49.908;35.556;2023-03-22T05:29:58;99324.25;;;5.80;86.49
73338;BME280;61575;49.908;35.556;2023-03-22T05:33:11;99324.72;;;6.03;86.01
73338;BME280;61575;49.908;35.556;2023-03-22T05:36:19;99328.00;;;6.24;85.19
73338;BME280;61575;49.908;35.556;2023-03-22T05:39:41;99331.59;;;6.43;84.04
73338;BME280;61575;49.908;35.556;2023-03-22T05:42:44;99336.72;;;6.54;83.86
73338;BME280;61575;49.908;35.556;2023-03-22T05:45:51;99332.84;;;6.66;83.23
73338;BME280;61575;49.908;35.556;2023-03-22T05:49:04;99323.81;;;6.77;82.55
73338;BME280;61575;49.908;35.556;2023-03-22T05:52:07;99322.97;;;6.94;81.64
73338;BME280;61575;49.908;35.556;2023-03-22T05:55:28;99315.75;;;7.22;81.05
73338;BME280;61575;49.908;35.556;2023-03-22T05:58:35;99324.16;;;7.45;80.12
73338;BME280;61575;49.908;35.556;2023-03-22T06:01:37;99321.13;;;7.65;79.53
73338;BME280;61575;49.908;35.556;2023-03-22T06:05:00;99321.88;;;7.76;78.39
73338;BME280;61575;49.908;35.556;2023-03-22T06:08:02;99329.22;;;7.74;78.04
73338;BME280;61575;49.908;35.556;2023-03-22T06:11:05;99323.25;;;7.80;77.65
73338;BME280;61575;49.908;35.556;2023-03-22T06:14:09;99329.41;;;8.06;76.78
73338;BME280;61575;49.908;35.556;2023-03-22T06:17:30;99320.03;;;8.36;75.70
73338;BME280;61575;49.908;35.556;2023-03-22T06:20:32;99327.81;;;8.55;74.94
73338;BME280;61575;49.908;35.556;2023-03-22T06:23:39;99320.16;;;8.69;74.69
73338;BME280;61575;49.908;35.556;2023-03-22T06:26:42;99327.34;;;8.68;74.06
73338;BME280;61575;49.908;35.556;2023-03-22T06:29:44;99319.31;;;8.68;74.36
73338;BME280;61575;49.908;35.556;2023-03-22T06:32:55;99328.72;;;8.72;74.39
73338;BME280;61575;49.908;35.556;2023-03-22T06:36:02;99334.13;;;8.96;73.92
73338;BME280;61575;49.908;35.556;2023-03-22T06:39:15;99332.88;;;9.25;72.76
73338;BME280;61575;49.908;35.556;2023-03-22T06:42:19;99333.69;;;9.50;71.77
73338;BME280;61575;49.908;35.556;2023-03-22T06:45:30;99330.66;;;9.69;71.38
73338;BME280;61575;49.908;35.556;2023-03-22T06:48:35;99337.53;;;9.80;70.82
73338;BME280;61575;49.908;35.556;2023-03-22T06:51:44;99342.22;;;9.86;70.52
73338;BME280;61575;49.908;35.556;2023-03-22T06:54:47;99339.34;;;9.87;70.30
73338;BME280;61575;49.908;35.556;2023-03-22T06:57:49;99339.81;;;10.07;69.77
73338;BME280;61575;49.908;35.556;2023-03-22T07:00:51;99343.78;;;10.36;69.10
73338;BME280;61575;49.908;35.556;2023-03-22T07:03:56;99328.59;;;10.59;67.89
73338;BME280;61575;49.908;35.556;2023-03-22T07:06:58;99344.31;;;10.78;67.21
73338;BME280;61575;49.908;35.556;2023-03-22T07:10:01;99338.50;;;10.98;66.24
73338;BME280;61575;49.908;35.556;2023-03-22T07:13:03;99335.84;;;11.20;65.52
73338;BME280;61575;49.908;35.556;2023-03-22T07:16:07;99337.69;;;11.43;64.67
73338;BME280;61575;49.908;35.556;2023-03-22T07:19:16;99341.75;;;11.62;63.29
73338;BME280;61575;49.908;35.556;2023-03-22T07:22:20;99340.50;;;11.87;62.39
73338;BME280;61575;49.908;35.556;2023-03-22T07:25:24;99342.84;;;12.05;61.64
73338;BME280;61575;49.908;35.556;2023-03-22T07:28:35;99343.19;;;12.25;60.62
73338;BME280;61575;49.908;35.556;2023-03-22T07:31:39;99338.53;;;12.48;59.87
73338;BME280;61575;49.908;35.556;2023-03-22T07:34:44;99344.66;;;12.71;59.18
73338;BME280;61575;49.908;35.556;2023-03-22T07:37:49;99345.47;;;12.87;58.57
73338;BME280;61575;49.908;35.556;2023-03-22T07:40:59;99342.47;;;12.96;57.63
73338;BME280;61575;49.908;35.556;2023-03-22T07:44:16;99338.97;;;13.17;57.16
73338;BME280;61575;49.908;35.556;2023-03-22T07:47:35;99336.81;;;13.27;56.24
73338;BME280;61575;49.908;35.556;2023-03-22T07:51:04;99335.56;;;13.44;56.53
73338;BME280;61575;49.908;35.556;2023-03-22T07:54:06;99332.41;;;13.62;56.17
73338;BME280;61575;49.908;35.556;2023-03-22T07:57:08;99330.31;;;13.86;55.15
73338;BME280;61575;49.908;35.556;2023-03-22T08:00:17;99338.16;;;14.08;54.83
73338;BME280;61575;49.908;35.556;2023-03-22T08:03:28;99342.44;;;14.24;53.09
73338;BME280;61575;49.908;35.556;2023-03-22T08:06:42;99352.25;;;14.32;51.88
73338;BME280;61575;49.908;35.556;2023-03-22T08:09:44;99343.59;;;14.43;51.36
73338;BME280;61575;49.908;35.556;2023-03-22T08:12:46;99339.16;;;14.70;51.24
73338;BME280;61575;49.908;35.556;2023-03-22T08:15:55;99335.47;;;14.84;51.09
73338;BME280;61575;49.908;35.556;2023-03-22T08:18:58;99331.19;;;15.03;49.88
73338;BME280;61575;49.908;35.556;2023-03-22T08:22:02;99330.16;;;15.10;49.11
73338;BME280;61575;49.908;35.556;2023-03-22T08:25:27;99333.50;;;15.19;49.45
73338;BME280;61575;49.908;35.556;2023-03-22T08:28:38;99340.66;;;15.47;49.15
73338;BME280;61575;49.908;35.556;2023-03-22T08:31:41;99337.78;;;15.68;48.22
73338;BME280;61575;49.908;35.556;2023-03-22T08:34:44;99343.00;;;15.76;47.14
73338;BME280;61575;49.908;35.556;2023-03-22T08:37:46;99349.25;;;15.96;46.96
73338;BME280;61575;49.908;35.556;2023-03-22T08:40:48;99345.50;;;16.17;46.88
73338;BME280;61575;49.908;35.556;2023-03-22T08:43:55;99344.63;;;16.30;45.90
73338;BME280;61575;49.908;35.556;2023-03-22T08:46:57;99349.84;;;16.38;45.01
73338;BME280;61575;49.908;35.556;2023-03-22T08:49:59;99344.22;;;16.33;43.75
73338;BME280;61575;49.908;35.556;2023-03-22T08:53:13;99344.19;;;16.46;44.33
73338;BME280;61575;49.908;35.556;2023-03-22T08:56:21;99350.84;;;16.63;43.66
73338;BME280;61575;49.908;35.556;2023-03-22T08:59:45;99356.03;;;16.72;43.78
73338;BME280;61575;49.908;35.556;2023-03-22T09:03:10;99352.69;;;16.76;43.22
73338;BME280;61575;49.908;35.556;2023-03-22T09:06:14;99359.94;;;16.89;43.13
73338;BME280;61575;49.908;35.556;2023-03-22T09:09:17;99356.13;;;17.03;42.57
73338;BME280;61575;49.908;35.556;2023-03-22T09:12:23;99356.81;;;16.92;41.66
73338;BME280;61575;49.908;35.556;2023-03-22T09:15:25;99346.91;;;17.11;42.21
73338;BME280;61575;49.908;35.556;2023-03-22T09:18:49;99348.22;;;17.40;42.61
73338;BME280;61575;49.908;35.556;2023-03-22T09:21:54;99352.31;;;17.49;41.49
73338;BME280;61575;49.908;35.556;2023-03-22T09:25:14;99360.16;;;17.32;40.54
73338;BME280;61575;49.908;35.556;2023-03-22T09:28:19;99351.41;;;17.30;40.51
73338;BME280;61575;49.908;35.556;2023-03-22T09:31:21;99363.41;;;17.09;40.47
73338;BME280;61575;49.908;35.556;2023-03-22T09:34:34;99356.53;;;17.07;40.81
73338;BME280;61575;49.908;35.556;2023-03-22T09:37:37;99355.81;;;17.24;40.53
73338;BME280;61575;49.908;35.556;2023-03-22T09:40:58;99349.69;;;17.35;38.47
73338;BME280;61575;49.908;35.556;2023-03-22T09:44:11;99335.47;;;17.40;39.91
73338;BME280;61575;49.908;35.556;2023-03-22T09:47:18;99343.44;;;17.35;39.99
73338;BME280;61575;49.908;35.556;2023-03-22T09:50:27;99337.16;;;17.34;40.00
73338;BME280;61575;49.908;35.556;2023-03-22T09:53:31;99338.97;;;17.47;40.38
73338;BME280;61575;49.908;35.556;2023-03-22T09:56:34;99327.88;;;17.55;40.85
73338;BME280;61575;49.908;35.556;2023-03-22T10:06:17;99340.69;;;17.73;39.73
73338;BME280;61575;49.908;35.556;2023-03-22T10:09:28;99330.44;;;17.75;39.48
73338;BME280;61575;49.908;35.556;2023-03-22T10:15:58;99317.13;;;17.67;38.82
73338;BME280;61575;49.908;35.556;2023-03-22T10:19:22;99319.41;;;17.70;38.84
73338;BME280;61575;49.908;35.556;2023-03-22T10:22:34;99317.66;;;17.82;39.42
73338;BME280;61575;49.908;35.556;2023-03-22T10:25:39;99313.59;;;17.91;39.33
73338;BME280;61575;49.908;35.556;2023-03-22T10:28:43;99312.50;;;17.74;39.73
73338;BME280;61575;49.908;35.556;2023-03-22T10:31:45;99311.31;;;17.63;39.32
73338;BME280;61575;49.908;35.556;2023-03-22T10:34:49;99307.16;;;17.61;39.32
73338;BME280;61575;49.908;35.556;2023-03-22T10:37:54;99299.34;;;17.71;39.10
73338;BME280;61575;49.908;35.556;2023-03-22T10:40:58;99308.44;;;17.58;40.26
73338;BME280;61575;49.908;35.556;2023-03-22T10:44:02;99304.41;;;17.67;39.73
73338;BME280;61575;49.908;35.556;2023-03-22T10:47:06;99303.84;;;17.59;40.08
73338;BME280;61575;49.908;35.556;2023-03-22T10:50:17;99295.84;;;17.64;40.06
73338;BME280;61575;49.908;35.556;2023-03-22T10:53:37;99301.63;;;17.74;40.72
73338;BME280;61575;49.908;35.556;2023-03-22T10:56:40;99300.94;;;17.54;40.70
73338;BME280;61575;49.908;35.556;2023-03-22T10:59:47;99299.91;;;17.55;40.11
73338;BME280;61575;49.908;35.556;2023-03-22T11:02:52;99294.03;;;17.58;40.35
73338;BME280;61575;49.908;35.556;2023-03-22T11:09:10;99293.19;;;17.57;39.17
73338;BME280;61575;49.908;35.556;2023-03-22T11:12:17;99297.28;;;17.66;40.25
73338;BME280;61575;49.908;35.556;2023-03-22T11:15:32;99288.81;;;17.56;39.04
73338;BME280;61575;49.908;35.556;2023-03-22T11:18:35;99290.19;;;17.65;39.22
73338;BME280;61575;49.908;35.556;2023-03-22T11:21:40;99281.72;;;17.80;39.30
73338;BME280;61575;49.908;35.556;2023-03-22T11:24:45;99292.31;;;17.88;39.14
73338;BME280;61575;49.908;35.556;2023-03-22T11:27:56;99290.66;;;17.87;38.35
73338;BME280;61575;49.908;35.556;2023-03-22T11:31:09;99288.47;;;17.71;38.37
73338;BME280;61575;49.908;35.556;2023-03-22T11:34:16;99275.06;;;17.76;38.48
73338;BME280;61575;49.908;35.556;2023-03-22T11:37:20;99285.09;;;17.76;38.87
73338;BME280;61575;49.908;35.556;2023-03-22T11:40:28;99281.84;;;17.67;39.36
73338;BME280;61575;49.908;35.556;2023-03-22T11:43:38;99279.84;;;17.56;38.46
73338;BME280;61575;49.908;35.556;2023-03-22T11:46:54;99277.56;;;17.53;39.23
73338;BME280;61575;49.908;35.556;2023-03-22T11:50:03;99278.91;;;17.37;38.39
73338;BME280;61575;49.908;35.556;2023-03-22T11:53:15;99279.50;;;17.39;39.13
73338;BME280;61575;49.908;35.556;2023-03-22T11:56:21;99282.84;;;17.41;38.77
73338;BME280;61575;49.908;35.556;2023-03-22T11:59:28;99282.44;;;17.38;38.85
73338;BME280;61575;49.908;35.556;2023-03-22T12:02:48;99277.44;;;17.34;38.70
73338;BME280;61575;49.908;35.556;2023-03-22T12:05:52;99286.00;;;17.38;38.44
73338;BME280;61575;49.908;35.556;2023-03-22T12:12:00;99275.66;;;17.22;38.15
73338;BME280;61575;49.908;35.556;2023-03-22T12:15:09;99278.06;;;17.37;38.10
73338;BME280;61575;49.908;35.556;2023-03-22T12:18:26;99278.63;;;17.45;38.02
73338;BME280;61575;49.908;35.556;2023-03-22T12:21:30;99284.44;;;17.49;38.09
73338;BME280;61575;49.908;35.556;2023-03-22T12:24:32;99277.34;;;17.48;37.18
73338;BME280;61575;49.908;35.556;2023-03-22T12:27:36;99276.78;;;17.39;37.56
73338;BME280;61575;49.908;35.556;2023-03-22T12:30:42;99270.19;;;17.28;37.92
73338;BME280;61575;49.908;35.556;2023-03-22T12:33:53;99274.44;;;17.18;37.89
73338;BME280;61575;49.908;35.556;2023-03-22T12:36:55;99274.22;;;17.19;38.00
73338;BME280;61575;49.908;35.556;2023-03-22T12:40:05;99262.53;;;17.19;37.86
73338;BME280;61575;49.908;35.556;2023-03-22T12:50:16;99281.63;;;16.61;38.71
73338;BME280;61575;49.908;35.556;2023-03-22T12:53:19;99272.88;;;16.59;39.17
73338;BME280;61575;49.908;35.556;2023-03-22T12:56:26;99270.53;;;16.69;38.51
73338;BME280;61575;49.908;35.556;2023-03-22T12:59:30;99266.94;;;16.75;38.44
73338;BME280;61575;49.908;35.556;2023-03-22T13:02:33;99266.00;;;16.94;38.96
73338;BME280;61575;49.908;35.556;2023-03-22T13:05:39;99264.19;;;16.88;38.56
73338;BME280;61575;49.908;35.556;2023-03-22T13:15:33;99264.63;;;16.79;38.84
73338;BME280;61575;49.908;35.556;2023-03-22T13:21:47;99272.38;;;16.75;39.02
73338;BME280;61575;49.908;35.556;2023-03-22T13:28:23;99265.13;;;16.62;38.40
73338;BME280;61575;49.908;35.556;2023-03-22T13:31:42;99262.63;;;16.61;38.30
73338;BME280;61575;49.908;35.556;2023-03-22T13:34:51;99257.44;;;16.46;39.48
73338;BME280;61575;49.908;35.556;2023-03-22T13:38:00;99261.88;;;16.34;39.17
73338;BME280;61575;49.908;35.556;2023-03-22T13:41:14;99260.84;;;16.28;40.13
73338;BME280;61575;49.908;35.556;2023-03-22T13:44:29;99267.09;;;16.29;40.20
73338;BME280;61575;49.908;35.556;2023-03-22T13:50:34;99266.91;;;16.24;40.25
73338;BME280;61575;49.908;35.556;2023-03-22T13:53:37;99268.38;;;16.20;40.09
73338;BME280;61575;49.908;35.556;2023-03-22T13:56:57;99260.69;;;16.10;40.01
73338;BME280;61575;49.908;35.556;2023-03-22T14:00:05;99264.66;;;16.01;40.30
73338;BME280;61575;49.908;35.556;2023-03-22T14:03:26;99263.00;;;15.87;39.97
73338;BME280;61575;49.908;35.556;2023-03-22T14:06:36;99259.91;;;15.83;39.64
73338;BME280;61575;49.908;35.556;2023-03-22T14:09:48;99262.59;;;15.77;40.29
73338;BME280;61575;49.908;35.556;2023-03-22T14:13:04;99263.66;;;15.69;40.90
73338;BME280;61575;49.908;35.556;2023-03-22T14:16:39;99263.03;;;15.67;40.08
73338;BME280;61575;49.908;35.556;2023-03-22T14:19:43;99270.53;;;15.71;39.95
73338;BME280;61575;49.908;35.556;2023-03-22T14:22:53;99269.28;;;15.61;39.91
73338;BME280;61575;49.908;35.556;2023-03-22T14:26:04;99270.50;;;15.52;40.48
73338;BME280;61575;49.908;35.556;2023-03-22T14:29:13;99271.13;;;15.40;40.46
73338;BME280;61575;49.908;35.556;2023-03-22T14:32:21;99270.47;;;15.32;40.96
73338;BME280;61575;49.908;35.556;2023-03-22T14:35:44;99270.88;;;15.22;42.16
73338;BME280;61575;49.908;35.556;2023-03-22T14:38:48;99276.06;;;15.10;42.22
73338;BME280;61575;49.908;35.556;2023-03-22T14:42:06;99281.66;;;15.02;42.88
73338;BME280;61575;49.908;35.556;2023-03-22T14:45:19;99279.34;;;14.93;43.54
73338;BME280;61575;49.908;35.556;2023-03-22T14:48:23;99280.78;;;14.82;44.23
73338;BME280;61575;49.908;35.556;2023-03-22T14:51:38;99282.41;;;14.76;44.32
73338;BME280;61575;49.908;35.556;2023-03-22T14:54:39;99287.38;;;14.66;44.71
73338;BME280;61575;49.908;35.556;2023-03-22T14:57:48;99287.75;;;14.57;45.35
73338;BME280;61575;49.908;35.556;2023-03-22T15:00:51;99286.06;;;14.56;45.83
73338;BME280;61575;49.908;35.556;2023-03-22T15:03:56;99289.66;;;14.63;45.79
73338;BME280;61575;49.908;35.556;2023-03-22T15:06:58;99288.59;;;14.64;45.34
73338;BME280;61575;49.908;35.556;2023-03-22T15:10:13;99299.00;;;14.60;45.56
73338;BME280;61575;49.908;35.556;2023-03-22T15:13:14;99287.38;;;14.66;45.52
73338;BME280;61575;49.908;35.556;2023-03-22T15:16:20;99283.19;;;14.57;45.67
73338;BME280;61575;49.908;35.556;2023-03-22T15:19:23;99285.38;;;14.40;45.92
73338;BME280;61575;49.908;35.556;2023-03-22T15:22:26;99288.38;;;14.18;45.99
73338;BME280;61575;49.908;35.556;2023-03-22T15:25:27;99284.88;;;13.89;48.41
73338;BME280;61575;49.908;35.556;2023-03-22T15:28:31;99287.28;;;13.77;48.51
73338;BME280;61575;49.908;35.556;2023-03-22T15:31:43;99293.59;;;13.63;49.27
73338;BME280;61575;49.908;35.556;2023-03-22T15:34:46;99295.72;;;13.46;49.49
73338;BME280;61575;49.908;35.556;2023-03-22T15:37:51;99291.97;;;13.26;49.96
73338;BME280;61575;49.908;35.556;2023-03-22T15:40:52;99295.31;;;13.07;51.88
73338;BME280;61575;49.908;35.556;2023-03-22T15:50:50;99304.25;;;12.57;54.45
73338;BME280;61575;49.908;35.556;2023-03-22T15:53:51;99304.75;;;12.45;54.70
73338;BME280;61575;49.908;35.556;2023-03-22T15:56:53;99304.66;;;12.24;55.03
73338;BME280;61575;49.908;35.556;2023-03-22T16:06:09;99309.69;;;11.75;54.53
73338;BME280;61575;49.908;35.556;2023-03-22T16:09:11;99316.03;;;11.59;54.96
73338;BME280;61575;49.908;35.556;2023-03-22T16:12:15;99302.72;;;11.43;55.47
73338;BME280;61575;49.908;35.556;2023-03-22T16:15:25;99306.84;;;11.31;56.00
73338;BME280;61575;49.908;35.556;2023-03-22T16:18:26;99302.91;;;11.18;56.94
73338;BME280;61575;49.908;35.556;2023-03-22T16:21:29;99302.50;;;11.07;57.81
73338;BME280;61575;49.908;35.556;2023-03-22T16:24:30;99308.28;;;10.96;57.77
73338;BME280;61575;49.908;35.556;2023-03-22T16:27:31;99306.00;;;10.84;57.53
73338;BME280;61575;49.908;35.556;2023-03-22T16:30:32;99304.38;;;10.75;57.82
73338;BME280;61575;49.908;35.556;2023-03-22T16:33:35;99308.44;;;10.63;58.12
73338;BME280;61575;49.908;35.556;2023-03-22T16:36:37;99310.19;;;10.48;58.46
73338;BME280;61575;49.908;35.556;2023-03-22T16:39:38;99302.19;;;10.32;58.75
73338;BME280;61575;49.908;35.556;2023-03-22T16:42:41;99305.91;;;10.22;58.97
73338;BME280;61575;49.908;35.556;2023-03-22T16:45:42;99307.13;;;10.12;59.60
73338;BME280;61575;49.908;35.556;2023-03-22T16:48:44;99315.19;;;10.04;59.93
73338;BME280;61575;49.908;35.556;2023-03-22T16:51:45;99322.44;;;9.87;61.18
73338;BME280;61575;49.908;35.556;2023-03-22T16:54:48;99315.22;;;9.79;61.07
73338;BME280;61575;49.908;35.556;2023-03-22T16:57:49;99319.44;;;9.74;60.90
73338;BME280;61575;49.908;35.556;2023-03-22T17:00:50;99319.09;;;9.69;60.37
73338;BME280;61575;49.908;35.556;2023-03-22T17:03:51;99306.72;;;9.59;60.36
73338;BME280;61575;49.908;35.556;2023-03-22T17:06:52;99310.41;;;9.50;60.63
73338;BME280;61575;49.908;35.556;2023-03-22T17:09:53;99322.97;;;9.42;61.13
73338;BME280;61575;49.908;35.556;2023-03-22T17:12:54;99318.78;;;9.31;61.37
73338;BME280;61575;49.908;35.556;2023-03-22T17:15:55;99322.81;;;9.27;61.25
73338;BME280;61575;49.908;35.556;2023-03-22T17:18:56;99329.84;;;9.20;61.37
73338;BME280;61575;49.908;35.556;2023-03-22T17:21:56;99332.69;;;9.10;62.17
73338;BME280;61575;49.908;35.556;2023-03-22T17:24:57;99326.63;;;9.08;62.03
73338;BME280;61575;49.908;35.556;2023-03-22T17:28:01;99330.44;;;8.97;61.64
73338;BME280;61575;49.908;35.556;2023-03-22T17:31:03;99336.28;;;8.93;61.54
73338;BME280;61575;49.908;35.556;2023-03-22T17:34:05;99340.78;;;8.84;61.67
73338;BME280;61575;49.908;35.556;2023-03-22T17:37:06;99343.28;;;8.78;61.61
73338;BME280;61575;49.908;35.556;2023-03-22T17:40:09;99340.75;;;8.68;61.70
73338;BME280;61575;49.908;35.556;2023-03-22T17:43:12;99351.25;;;8.61;61.95
73338;BME280;61575;49.908;35.556;2023-03-22T17:46:12;99343.69;;;8.49;62.61
73338;BME280;61575;49.908;35.556;2023-03-22T17:49:13;99354.34;;;8.41;62.66
73338;BME280;61575;49.908;35.556;2023-03-22T17:52:14;99348.63;;;8.36;62.42
73338;BME280;61575;49.908;35.556;2023-03-22T17:55:18;99351.94;;;8.29;62.04
73338;BME280;61575;49.908;35.556;2023-03-22T17:58:20;99361.28;;;8.25;62.30